Time;durP1;ratioP1;P1;durP2;ratioP2;P2;SDS_P1;SDS_P2;PMS_P1;PMS_P2;Temp;Humidity;BMP_temperature;BMP_pressure;BME280_temperature;BME280_humidity;BME280_pressure;Samples;Min_cycle;Max_cycle;Signal;HPM_P1;HPM_P2
2023/07/02 00:02:21;;;;;;;6.57;3.30;;;19.80;96.50;;;;;;4842649;29;20022;-86
2023/07/02 00:04:49;;;;;;;7.35;3.63;;;19.80;96.40;;;;;;4843258;29;20057;-85
2023/07/02 00:07:17;;;;;;;7.45;3.80;;;19.80;96.40;;;;;;4843732;29;20026;-85
2023/07/02 00:09:43;;;;;;;7.15;3.80;;;19.80;96.50;;;;;;4847496;29;20041;-85
2023/07/02 00:12:09;;;;;;;9.07;4.35;;;19.80;96.50;;;;;;4843341;29;20037;-85
2023/07/02 00:17:44;;;;;;;9.00;4.10;;;19.80;96.60;;;;;;4846418;29;20120;-85
2023/07/02 00:20:17;;;;;;;8.77;4.82;;;19.80;96.50;;;;;;4865232;29;20014;-86
2023/07/02 00:22:44;;;;;;;10.32;4.95;;;19.80;96.60;;;;;;4851613;29;20055;-85
2023/07/02 00:25:10;;;;;;;12.05;4.43;;;19.70;96.60;;;;;;4850819;29;20018;-86
2023/07/02 00:27:37;;;;;;;9.18;4.90;;;19.70;96.60;;;;;;4850804;29;20159;-86
2023/07/02 00:30:03;;;;;;;8.60;4.85;;;19.70;96.60;;;;;;4858909;29;20030;-86
2023/07/02 00:32:28;;;;;;;10.93;5.05;;;19.70;96.60;;;;;;4842407;29;20110;-85
2023/07/02 00:34:54;;;;;;;11.15;5.75;;;19.70;96.60;;;;;;4842153;29;20030;-86
2023/07/02 00:37:20;;;;;;;7.75;5.40;;;19.70;96.60;;;;;;4841338;29;20088;-87
2023/07/02 00:39:46;;;;;;;10.38;5.45;;;19.70;96.50;;;;;;4841272;29;20044;-87
2023/07/02 00:42:12;;;;;;;12.18;6.13;;;19.70;96.60;;;;;;4841216;29;20018;-85
2023/07/02 00:44:40;;;;;;;11.75;6.32;;;19.70;96.50;;;;;;4841126;29;20479;-86
2023/07/02 00:47:11;;;;;;;9.93;5.63;;;19.70;96.50;;;;;;4841361;29;20038;-85
2023/07/02 00:49:37;;;;;;;;;;;19.70;96.50;;;;;;4841751;29;20388;-86
2023/07/02 00:52:03;;;;;;;8.65;6.13;;;19.70;96.50;;;;;;4842738;29;20418;-85
2023/07/02 00:54:29;;;;;;;10.18;6.07;;;19.70;96.50;;;;;;4840943;29;20026;-86
2023/07/02 00:56:55;;;;;;;7.93;5.07;;;19.60;96.50;;;;;;4841673;29;20120;-85
2023/07/02 00:59:21;;;;;;;11.55;5.68;;;19.50;96.30;;;;;;4826195;29;20030;-85
2023/07/02 01:01:49;;;;;;;11.13;5.57;;;19.50;96.20;;;;;;4841198;29;20030;-85
2023/07/02 01:04:17;;;;;;;9.90;5.30;;;19.40;96.10;;;;;;4817511;29;20064;-85
2023/07/02 01:06:43;;;;;;;9.60;5.30;;;19.40;96.10;;;;;;4842377;29;20030;-85
2023/07/02 01:09:10;;;;;;;9.00;5.35;;;19.30;96.10;;;;;;4825668;29;20098;-85
2023/07/02 01:11:50;;;;;;;10.90;5.78;;;19.20;96.10;;;;;;4841131;29;20038;-85
2023/07/02 01:14:30;;;;;;;10.35;6.10;;;19.10;96.10;;;;;;4841218;29;20129;-85
2023/07/02 01:16:58;;;;;;;13.38;5.35;;;19.10;96.20;;;;;;4842744;29;20034;-85
2023/07/02 01:19:43;;;;;;;9.23;5.85;;;19.10;96.30;;;;;;4840916;29;20034;-86
2023/07/02 01:22:14;;;;;;;11.00;5.53;;;19.00;96.40;;;;;;4825933;29;20061;-86
2023/07/02 01:24:42;;;;;;;11.38;5.90;;;19.00;96.40;;;;;;4825506;29;20030;-85
2023/07/02 01:27:10;;;;;;;11.68;6.00;;;18.90;96.50;;;;;;4840938;29;20054;-85
2023/07/02 01:29:36;;;;;;;12.10;5.82;;;18.90;96.60;;;;;;4825683;29;20066;-86
2023/07/02 01:32:04;;;;;;;11.35;5.57;;;18.90;96.60;;;;;;4842533;29;20064;-85
2023/07/02 01:34:30;;;;;;;12.20;6.10;;;18.80;96.60;;;;;;4844262;29;20426;-85
2023/07/02 01:36:56;;;;;;;10.75;5.93;;;18.80;96.70;;;;;;4828755;29;20030;-85
2023/07/02 01:39:22;;;;;;;12.57;6.40;;;18.80;96.70;;;;;;4844314;29;20038;-85
2023/07/02 01:41:55;;;;;;;14.25;6.43;;;18.80;96.70;;;;;;4843852;29;20036;-86
2023/07/02 01:44:22;;;;;;;15.02;6.63;;;18.80;96.70;;;;;;4828827;29;20026;-86
2023/07/02 01:46:51;;;;;;;11.23;6.45;;;18.70;96.60;;;;;;4828635;29;20173;-86
2023/07/02 01:49:18;;;;;;;10.85;6.82;;;18.60;96.60;;;;;;4845390;29;20025;-85
2023/07/02 01:51:54;;;;;;;11.57;6.68;;;18.70;96.50;;;;;;4827978;29;20156;-86
2023/07/02 01:54:23;;;;;;;15.00;7.03;;;18.60;96.50;;;;;;4844970;29;20026;-86
2023/07/02 01:56:48;;;;;;;12.35;6.40;;;18.60;96.50;;;;;;4845109;29;20064;-86
2023/07/02 01:59:15;;;;;;;12.07;6.95;;;18.60;96.50;;;;;;4828936;29;20069;-86
2023/07/02 02:01:41;;;;;;;11.25;6.65;;;18.50;96.50;;;;;;4828669;29;20459;-86
2023/07/02 02:04:07;;;;;;;14.95;6.57;;;18.50;96.40;;;;;;4828096;29;20132;-85
2023/07/02 02:06:33;;;;;;;10.50;6.63;;;18.40;96.50;;;;;;4829121;29;20042;-85
2023/07/02 02:09:00;;;;;;;16.33;7.07;;;18.40;96.50;;;;;;4856325;29;20062;-86
2023/07/02 02:11:25;;;;;;;10.70;6.50;;;18.40;96.50;;;;;;4849454;29;20014;-86
2023/07/02 02:13:51;;;;;;;11.85;6.85;;;18.30;96.50;;;;;;4852199;29;20040;-85
2023/07/02 02:16:17;;;;;;;12.57;6.20;;;18.20;96.50;;;;;;4868593;29;20030;-85
2023/07/02 02:18:42;;;;;;;12.00;6.30;;;18.20;96.60;;;;;;4867462;29;20038;-84
2023/07/02 02:21:08;;;;;;;13.38;6.82;;;18.20;96.60;;;;;;4868237;29;20085;-85
2023/07/02 02:23:34;;;;;;;14.30;6.22;;;18.10;96.70;;;;;;4851247;29;20066;-85
2023/07/02 02:25:59;;;;;;;10.40;6.00;;;18.00;96.70;;;;;;4844040;29;20034;-86
2023/07/02 02:28:25;;;;;;;10.32;6.50;;;18.00;96.70;;;;;;4828235;29;20544;-85
2023/07/02 02:30:51;;;;;;;10.77;6.38;;;18.00;96.80;;;;;;4827899;29;20040;-85
2023/07/02 02:33:17;;;;;;;12.63;6.65;;;18.00;96.80;;;;;;4844336;29;20034;-85
2023/07/02 02:35:42;;;;;;;12.80;6.90;;;17.90;96.80;;;;;;4844681;29;20057;-85
2023/07/02 02:38:08;;;;;;;13.63;7.03;;;17.90;96.90;;;;;;4827917;29;20034;-86
2023/07/02 02:40:34;;;;;;;9.80;5.68;;;17.90;96.90;;;;;;4827794;29;20129;-84
2023/07/02 02:43:00;;;;;;;11.43;6.60;;;17.90;96.90;;;;;;4844446;29;20121;-85
2023/07/02 02:45:26;;;;;;;10.38;6.13;;;17.80;96.90;;;;;;4827785;29;20121;-85
2023/07/02 02:47:52;;;;;;;10.18;6.80;;;17.80;97.00;;;;;;4827816;29;20468;-85
2023/07/02 02:50:17;;;;;;;10.70;6.03;;;17.80;97.00;;;;;;4844140;29;20440;-86
2023/07/02 02:52:43;;;;;;;11.52;6.57;;;17.70;97.00;;;;;;4844115;29;20045;-86
2023/07/02 02:55:12;;;;;;;11.82;6.70;;;17.70;97.00;;;;;;4844102;29;20026;-86
2023/07/02 02:57:38;;;;;;;10.82;6.13;;;17.70;97.10;;;;;;4827616;29;20040;-86
2023/07/02 03:00:04;;;;;;;12.82;7.05;;;17.60;97.10;;;;;;4844095;29;20038;-86
2023/07/02 03:02:30;;;;;;;10.60;6.15;;;17.70;97.10;;;;;;4827486;29;20440;-85
2023/07/02 03:04:56;;;;;;;12.50;6.72;;;17.60;97.10;;;;;;4859302;29;20140;-86
2023/07/02 03:07:22;;;;;;;11.02;6.45;;;17.60;97.10;;;;;;4830804;29;20467;-85
2023/07/02 03:09:48;;;;;;;12.63;6.43;;;17.60;97.10;;;;;;4861920;29;20387;-85
2023/07/02 03:12:14;;;;;;;14.02;6.68;;;17.60;97.10;;;;;;4830691;29;20040;-85
2023/07/02 03:14:39;;;;;;;12.20;6.47;;;17.60;97.20;;;;;;4845450;29;20029;-85
2023/07/02 03:17:05;;;;;;;10.88;6.28;;;17.50;97.10;;;;;;4862282;29;20036;-85
2023/07/02 03:19:31;;;;;;;12.40;6.82;;;17.50;97.10;;;;;;4830150;29;20041;-85
2023/07/02 03:21:56;;;;;;;14.30;6.85;;;17.50;97.10;;;;;;4845560;29;20113;-85
2023/07/02 03:24:22;;;;;;;13.45;6.40;;;17.50;97.10;;;;;;4830358;29;20033;-85
2023/07/02 03:26:48;;;;;;;12.45;6.80;;;17.40;97.10;;;;;;4845126;29;20508;-85
2023/07/02 03:29:13;;;;;;;10.68;6.00;;;17.40;97.20;;;;;;4830476;29;20041;-85
2023/07/02 03:31:42;;;;;;;13.65;6.82;;;17.40;97.20;;;;;;4861977;29;20498;-85
2023/07/02 03:34:09;;;;;;;13.30;6.43;;;17.40;97.20;;;;;;4862109;29;20037;-85
2023/07/02 03:36:38;;;;;;;11.07;6.50;;;17.40;97.30;;;;;;4845190;29;20064;-85
2023/07/02 03:39:04;;;;;;;14.00;6.82;;;17.40;97.30;;;;;;4861395;29;20108;-85
2023/07/02 03:41:31;;;;;;;13.95;6.72;;;17.40;97.30;;;;;;4845284;29;20054;-85
2023/07/02 03:43:56;;;;;;;11.25;6.50;;;17.40;97.30;;;;;;4814721;29;20074;-85
2023/07/02 03:46:22;;;;;;;14.32;6.57;;;17.40;97.30;;;;;;4845571;29;20061;-85
2023/07/02 03:48:48;;;;;;;12.65;6.30;;;17.40;97.30;;;;;;4814489;29;20044;-85
2023/07/02 03:51:17;;;;;;;8.82;6.40;;;17.40;97.30;;;;;;4830232;29;20090;-85
2023/07/02 03:53:43;;;;;;;12.80;6.88;;;17.40;97.30;;;;;;4845659;29;20037;-84
2023/07/02 03:56:08;;;;;;;10.75;6.25;;;17.40;97.30;;;;;;4861577;29;20030;-85
2023/07/02 03:58:35;;;;;;;11.00;6.40;;;17.50;97.30;;;;;;4861910;29;20026;-85
2023/07/02 04:01:01;;;;;;;12.18;6.07;;;17.50;97.30;;;;;;4833378;29;20101;-85
2023/07/02 04:03:26;;;;;;;11.80;6.10;;;17.50;97.30;;;;;;4864784;29;20053;-85
2023/07/02 04:05:52;;;;;;;13.05;6.47;;;17.50;97.20;;;;;;4850436;29;20056;-85
2023/07/02 04:08:20;;;;;;;13.18;6.55;;;17.50;97.20;;;;;;4850944;29;20037;-85
2023/07/02 04:10:46;;;;;;;12.38;6.32;;;17.50;97.20;;;;;;4850272;29;20030;-82
2023/07/02 04:13:12;;;;;;;13.27;6.80;;;17.50;97.20;;;;;;4858658;29;20094;-85
2023/07/02 04:15:37;;;;;;;12.15;6.35;;;17.50;97.20;;;;;;4842513;29;20476;-85
2023/07/02 04:18:03;;;;;;;14.57;6.70;;;17.50;97.20;;;;;;4842102;29;20380;-85
2023/07/02 04:20:29;;;;;;;10.73;5.95;;;17.50;97.10;;;;;;4826931;29;20396;-85
2023/07/02 04:22:55;;;;;;;15.82;6.55;;;17.50;97.10;;;;;;4841733;29;20041;-85
2023/07/02 04:25:21;;;;;;;12.32;6.57;;;17.50;97.10;;;;;;4826637;29;20029;-85
2023/07/02 04:27:47;;;;;;;11.10;6.28;;;17.50;97.00;;;;;;4841568;29;20038;-85
2023/07/02 04:30:14;;;;;;;10.95;6.63;;;17.50;96.90;;;;;;4826476;29;20038;-86
2023/07/02 04:32:40;;;;;;;13.38;6.57;;;17.50;96.90;;;;;;4826081;29;20178;-85
2023/07/02 04:35:06;;;;;;;10.52;5.72;;;17.50;96.90;;;;;;4826321;29;20026;-85
2023/07/02 04:37:32;;;;;;;11.23;5.88;;;17.50;96.80;;;;;;4841640;29;20033;-85
2023/07/02 04:39:58;;;;;;;13.07;6.82;;;17.50;96.80;;;;;;4841226;29;20045;-86
2023/07/02 04:42:27;;;;;;;13.63;6.43;;;17.50;96.80;;;;;;4810816;29;20476;-86
2023/07/02 04:44:54;;;;;;;13.73;6.88;;;17.50;96.80;;;;;;4841329;29;20034;-86
2023/07/02 04:47:20;;;;;;;15.93;6.63;;;17.60;96.80;;;;;;4811192;29;20094;-86
2023/07/02 04:49:46;;;;;;;13.15;6.53;;;17.50;96.70;;;;;;4810859;29;20053;-86
2023/07/02 04:52:11;;;;;;;12.90;6.80;;;17.60;96.70;;;;;;4842411;29;20380;-86
2023/07/02 04:54:37;;;;;;;13.73;6.80;;;17.60;96.70;;;;;;4826399;29;20034;-86
2023/07/02 04:57:03;;;;;;;13.48;6.60;;;17.60;96.60;;;;;;4810847;29;20038;-85
2023/07/02 04:59:29;;;;;;;16.35;7.00;;;17.60;96.60;;;;;;4842178;29;20572;-86
2023/07/02 05:01:54;;;;;;;12.77;6.55;;;17.60;96.60;;;;;;4842136;29;20034;-86
2023/07/02 05:04:23;;;;;;;11.63;6.60;;;17.60;96.50;;;;;;4852561;29;20157;-86
2023/07/02 05:06:49;;;;;;;15.57;7.18;;;17.70;96.50;;;;;;4860774;29;20413;-86
2023/07/02 05:09:14;;;;;;;14.68;6.72;;;17.70;96.40;;;;;;4847644;29;20089;-86
2023/07/02 05:11:40;;;;;;;12.52;7.53;;;17.70;96.30;;;;;;4832777;29;20041;-86
2023/07/02 05:14:06;;;;;;;10.90;6.88;;;17.70;96.30;;;;;;4832534;29;20468;-86
2023/07/02 05:16:31;;;;;;;12.02;6.65;;;17.80;96.30;;;;;;4864348;29;20081;-87
2023/07/02 05:18:57;;;;;;;14.35;6.88;;;17.80;96.20;;;;;;4847696;29;20117;-86
2023/07/02 05:21:23;;;;;;;12.38;6.93;;;17.80;96.20;;;;;;4832657;29;20041;-86
2023/07/02 05:23:48;;;;;;;13.43;6.95;;;17.80;96.20;;;;;;4847753;29;20033;-87
2023/07/02 05:26:14;;;;;;;19.20;7.55;;;17.80;96.20;;;;;;4832157;29;20033;-86
2023/07/02 05:28:40;;;;;;;11.00;6.70;;;17.90;96.10;;;;;;4832274;29;20026;-87
2023/07/02 05:31:05;;;;;;;14.23;7.32;;;17.90;96.10;;;;;;4847430;29;20406;-86
2023/07/02 05:33:33;;;;;;;16.05;7.65;;;17.90;96.00;;;;;;4847644;29;20044;-86
2023/07/02 05:35:59;;;;;;;14.10;7.72;;;17.90;95.90;;;;;;4847942;29;20380;-86
2023/07/02 05:38:24;;;;;;;16.65;7.53;;;17.90;95.80;;;;;;4847960;29;20022;-86
2023/07/02 05:40:57;;;;;;;16.30;7.38;;;18.00;95.70;;;;;;4834235;29;20045;-85
2023/07/02 05:43:22;;;;;;;16.13;7.45;;;18.00;95.70;;;;;;4851354;29;20124;-86
2023/07/02 05:45:51;;;;;;;14.18;7.10;;;18.00;95.60;;;;;;4858838;29;20073;-86
2023/07/02 05:48:16;;;;;;;16.17;7.60;;;18.00;95.50;;;;;;4881100;29;20029;-86
2023/07/02 05:50:42;;;;;;;18.20;7.00;;;18.10;95.50;;;;;;4854246;29;20078;-86
2023/07/02 05:53:09;;;;;;;13.48;6.97;;;18.10;95.50;;;;;;4869053;29;20038;-86
2023/07/02 05:55:35;;;;;;;15.90;7.50;;;18.20;95.50;;;;;;4883038;29;20029;-86
2023/07/02 05:58:02;;;;;;;18.58;7.45;;;18.20;95.30;;;;;;4840506;29;20069;-86
2023/07/02 06:00:29;;;;;;;14.00;6.65;;;18.20;95.30;;;;;;4852665;29;20376;-86
2023/07/02 06:02:54;;;;;;;13.45;6.22;;;18.30;95.20;;;;;;4833227;29;20424;-85
2023/07/02 06:05:20;;;;;;;14.13;7.10;;;18.30;95.10;;;;;;4859349;29;20061;-85
2023/07/02 06:07:46;;;;;;;15.30;7.30;;;18.30;95.00;;;;;;4844468;29;20499;-86
2023/07/02 06:10:12;;;;;;;14.02;6.95;;;18.40;94.80;;;;;;4843827;29;20041;-85
2023/07/02 06:12:41;;;;;;;14.85;7.43;;;18.40;94.60;;;;;;4845116;29;20392;-86
2023/07/02 06:15:07;;;;;;;12.85;6.75;;;18.40;94.60;;;;;;4844952;29;20120;-86
2023/07/02 06:17:33;;;;;;;14.45;6.88;;;18.50;94.60;;;;;;4843785;29;20552;-87
2023/07/02 06:19:59;;;;;;;14.38;6.55;;;18.50;94.50;;;;;;4843368;29;20050;-85
2023/07/02 06:22:27;;;;;;;14.75;6.55;;;18.50;94.40;;;;;;4843505;29;20030;-86
2023/07/02 06:24:52;;;;;;;14.75;6.50;;;18.50;94.30;;;;;;4843770;29;20030;-85
2023/07/02 06:27:18;;;;;;;16.48;6.63;;;18.60;94.10;;;;;;4843523;29;20045;-86
2023/07/02 06:29:43;;;;;;;12.25;6.80;;;18.60;94.00;;;;;;4843304;29;20037;-87
2023/07/02 06:32:09;;;;;;;12.60;6.80;;;18.60;93.90;;;;;;4843281;29;20034;-87
2023/07/02 06:34:36;;;;;;;11.90;6.05;;;18.60;93.80;;;;;;4828328;29;20034;-86
2023/07/02 06:37:01;;;;;;;11.02;5.90;;;18.60;93.70;;;;;;4843315;29;20034;-85
2023/07/02 06:39:27;;;;;;;11.68;6.03;;;18.60;93.70;;;;;;4827889;29;20042;-87
2023/07/02 06:41:56;;;;;;;14.20;6.20;;;18.60;93.60;;;;;;4813087;29;20045;-87
2023/07/02 06:44:21;;;;;;;15.13;6.50;;;18.60;93.50;;;;;;4828249;29;20039;-87
2023/07/02 06:46:47;;;;;;;12.30;6.07;;;18.70;93.50;;;;;;4843193;29;20036;-87
2023/07/02 06:49:13;;;;;;;11.48;6.15;;;18.80;93.30;;;;;;4842994;29;20128;-86
2023/07/02 06:51:41;;;;;;;11.85;6.20;;;18.80;93.30;;;;;;4827239;29;20407;-87
2023/07/02 06:54:07;;;;;;;11.63;5.65;;;18.80;93.20;;;;;;4812175;29;20132;-86
2023/07/02 06:56:33;;;;;;;11.10;5.78;;;18.90;93.10;;;;;;4842712;29;20125;-86
2023/07/02 06:59:03;;;;;;;10.07;6.32;;;18.80;92.90;;;;;;4842986;29;20065;-86
2023/07/02 07:01:28;;;;;;;13.50;6.30;;;18.90;92.90;;;;;;4844374;29;20387;-85
2023/07/02 07:03:54;;;;;;;11.43;5.68;;;18.90;92.80;;;;;;4850733;29;20057;-86
2023/07/02 07:06:23;;;;;;;10.65;5.60;;;19.00;92.80;;;;;;4845684;29;20057;-85
2023/07/02 07:08:48;;;;;;;11.85;6.40;;;19.00;92.70;;;;;;4831070;29;20502;-85
2023/07/02 07:11:14;;;;;;;11.15;5.25;;;19.00;92.60;;;;;;4830333;29;20136;-85
2023/07/02 07:13:40;;;;;;;10.82;5.78;;;19.00;92.50;;;;;;4830215;29;20033;-85
2023/07/02 07:16:05;;;;;;;13.25;5.53;;;19.10;92.50;;;;;;4861805;29;20041;-84
2023/07/02 07:18:31;;;;;;;8.38;5.25;;;19.10;92.40;;;;;;4845569;29;20029;-86
2023/07/02 07:20:57;;;;;;;9.85;5.25;;;19.10;92.30;;;;;;4845793;29;20030;-86
2023/07/02 07:23:22;;;;;;;12.18;6.20;;;19.20;92.30;;;;;;4861919;29;20117;-85
2023/07/02 07:25:48;;;;;;;10.32;6.03;;;19.20;92.20;;;;;;4830514;29;20143;-85
2023/07/02 07:28:16;;;;;;;8.63;5.30;;;19.20;92.00;;;;;;4862094;29;20108;-85
2023/07/02 07:30:45;;;;;;;11.35;5.20;;;19.20;92.00;;;;;;4845285;29;20038;-85
2023/07/02 07:33:11;;;;;;;12.13;5.88;;;19.30;91.90;;;;;;4845342;29;20476;-85
2023/07/02 07:35:37;;;;;;;9.25;4.68;;;19.30;91.90;;;;;;4831013;29;20029;-85
2023/07/02 07:38:03;;;;;;;9.38;4.78;;;19.40;91.90;;;;;;4862580;29;20034;-85
2023/07/02 07:40:29;;;;;;;10.88;5.10;;;19.40;91.80;;;;;;4863430;29;20036;-86
2023/07/02 07:42:54;;;;;;;10.80;5.18;;;19.40;91.70;;;;;;4864640;29;20030;-86
2023/07/02 07:45:20;;;;;;;10.38;5.70;;;19.40;91.70;;;;;;4864432;29;20037;-84
2023/07/02 07:47:46;;;;;;;13.20;5.68;;;19.40;91.70;;;;;;4853847;29;20076;-85
2023/07/02 07:50:12;;;;;;;12.93;5.25;;;19.50;91.50;;;;;;4884849;29;20042;-85
2023/07/02 07:52:41;;;;;;;9.18;5.00;;;19.40;91.50;;;;;;4868586;29;20030;-86
2023/07/02 07:55:08;;;;;;;11.20;5.10;;;19.40;91.60;;;;;;4866764;29;20026;-86
2023/07/02 07:57:35;;;;;;;10.68;5.45;;;19.40;91.60;;;;;;4848729;29;20065;-85
2023/07/02 08:00:09;;;;;;;10.52;5.60;;;19.50;91.40;;;;;;4862574;29;20022;-87
2023/07/02 08:02:35;;;;;;;8.82;4.65;;;19.50;91.40;;;;;;4845395;29;20082;-85
2023/07/02 08:05:02;;;;;;;10.63;5.53;;;19.50;91.40;;;;;;4861455;29;20053;-85
2023/07/02 08:07:28;;;;;;;8.13;4.90;;;19.50;91.40;;;;;;4829825;29;20045;-85
2023/07/02 08:09:53;;;;;;;11.50;4.95;;;19.60;91.30;;;;;;4829768;29;20080;-87
2023/07/02 08:12:22;;;;;;;11.45;5.68;;;19.70;90.90;;;;;;4844517;29;20029;-85
2023/07/02 08:14:49;;;;;;;11.85;5.18;;;19.60;90.60;;;;;;4861344;29;20065;-85
2023/07/02 08:17:15;;;;;;;10.55;5.90;;;19.60;90.20;;;;;;4844843;29;20415;-85
2023/07/02 08:19:41;;;;;;;9.32;5.30;;;19.60;90.20;;;;;;4844741;29;20033;-86
2023/07/02 08:22:07;;;;;;;11.00;5.32;;;19.60;90.10;;;;;;4829619;29;20037;-85
2023/07/02 08:24:33;;;;;;;7.85;4.40;;;19.70;90.20;;;;;;4844479;29;20352;-86
2023/07/02 08:26:59;;;;;;;11.02;5.07;;;19.80;90.20;;;;;;4844664;29;20467;-85
2023/07/02 08:29:24;;;;;;;13.13;5.47;;;19.90;90.00;;;;;;4829482;29;20041;-88
2023/07/02 08:31:53;;;;;;;8.27;4.60;;;19.90;89.70;;;;;;4829618;29;20038;-86
2023/07/02 08:34:18;;;;;;;8.25;4.47;;;19.90;89.10;;;;;;4844685;29;20535;-86
2023/07/02 08:36:44;;;;;;;8.48;4.85;;;20.00;88.70;;;;;;4861328;29;20038;-86
2023/07/02 08:39:10;;;;;;;8.70;5.30;;;20.00;87.90;;;;;;4844719;29;20057;-86
2023/07/02 08:41:46;;;;;;;9.70;4.97;;;20.00;87.90;;;;;;4846289;29;20476;-85
2023/07/02 08:44:13;;;;;;;12.10;5.22;;;20.00;87.90;;;;;;4848259;29;20072;-86
2023/07/02 08:46:43;;;;;;;7.72;4.72;;;20.10;88.10;;;;;;4848203;29;20044;-86
2023/07/02 08:49:09;;;;;;;9.55;4.95;;;20.10;87.80;;;;;;4848042;29;20437;-86
2023/07/02 08:51:38;;;;;;;9.52;5.40;;;20.10;88.10;;;;;;4847886;29;20068;-85
2023/07/02 08:54:04;;;;;;;9.32;5.05;;;20.20;88.10;;;;;;4847986;29;20072;-86
2023/07/02 08:56:30;;;;;;;11.55;4.85;;;20.30;87.40;;;;;;4864617;29;20112;-86
2023/07/02 08:58:56;;;;;;;9.05;4.95;;;20.40;87.00;;;;;;4864629;29;20428;-86
2023/07/02 09:01:22;;;;;;;11.05;4.93;;;20.40;86.90;;;;;;4847705;29;20030;-86
2023/07/02 09:03:49;;;;;;;7.45;4.72;;;20.40;86.70;;;;;;4831597;29;20089;-86
2023/07/02 09:06:18;;;;;;;7.47;4.85;;;20.40;86.60;;;;;;4864655;29;20037;-85
2023/07/02 09:08:44;;;;;;;7.95;4.22;;;20.40;86.00;;;;;;4847530;29;20124;-85
2023/07/02 09:11:11;;;;;;;9.85;4.75;;;20.50;85.70;;;;;;4847326;29;20539;-86
2023/07/02 09:13:44;;;;;;;6.80;4.35;;;20.50;85.80;;;;;;4848080;29;20074;-86
2023/07/02 09:16:32;;;;;;;9.40;4.75;;;20.60;85.90;;;;;;4864574;29;20464;-86
2023/07/02 09:19:04;;;;;;;8.63;4.68;;;20.60;85.30;;;;;;4848362;29;20025;-86
2023/07/02 09:21:41;;;;;;;8.15;4.60;;;20.60;85.40;;;;;;4864086;29;20488;-86
2023/07/02 09:24:13;;;;;;;11.82;4.90;;;20.70;85.00;;;;;;4848037;29;20181;-86
2023/07/02 09:26:46;;;;;;;8.35;4.65;;;20.70;84.70;;;;;;4847678;29;20463;-87
2023/07/02 09:29:12;;;;;;;8.75;4.40;;;20.80;84.50;;;;;;4832620;29;20032;-87
2023/07/02 09:31:46;;;;;;;8.07;4.40;;;20.70;83.40;;;;;;4863292;29;20033;-88
2023/07/02 09:34:12;;;;;;;7.38;4.60;;;20.70;83.10;;;;;;4848144;29;20491;-87
2023/07/02 09:36:40;;;;;;;7.43;4.13;;;20.70;82.90;;;;;;4849152;29;20043;-87
2023/07/02 09:39:18;;;;;;;8.13;4.50;;;20.70;82.90;;;;;;4859044;29;20029;-87
2023/07/02 09:41:45;;;;;;;8.88;4.75;;;20.70;83.00;;;;;;4871230;29;20025;-86
2023/07/02 09:44:15;;;;;;;7.40;4.55;;;20.70;82.60;;;;;;4870769;29;20101;-88
2023/07/02 09:46:49;;;;;;;9.75;4.88;;;20.70;82.30;;;;;;4870523;29;20033;-86
2023/07/02 09:49:17;;;;;;;7.32;4.07;;;20.60;81.80;;;;;;4868577;29;20467;-86
2023/07/02 09:51:51;;;;;;;7.82;4.22;;;20.60;81.80;;;;;;4836627;29;20227;-86
2023/07/02 09:54:17;;;;;;;8.50;4.32;;;20.60;81.70;;;;;;4833434;29;20029;-89
2023/07/02 09:56:45;;;;;;;7.85;4.47;;;20.60;81.60;;;;;;4864595;29;20025;-89
2023/07/02 09:59:11;;;;;;;5.75;4.03;;;20.60;81.20;;;;;;4863937;29;20029;-88
2023/07/02 10:01:37;;;;;;;7.57;3.97;;;20.60;80.60;;;;;;4832338;29;20030;-87
2023/07/02 10:04:18;;;;;;;6.30;3.88;;;20.60;80.60;;;;;;4844097;29;20141;-87
2023/07/02 10:06:46;;;;;;;;;;;20.60;80.60;;;;;;4845664;29;20025;-87
2023/07/02 10:09:12;;;;;;;5.65;3.78;;;20.70;80.60;;;;;;4845335;29;19949;-86
2023/07/02 10:11:37;;;;;;;6.80;4.15;;;20.70;80.90;;;;;;4843648;29;20072;-87
2023/07/02 10:14:03;;;;;;;5.38;3.45;;;20.80;81.00;;;;;;4844253;29;20058;-86
2023/07/02 10:16:31;;;;;;;7.22;3.75;;;20.90;80.60;;;;;;4843735;29;20144;-85
2023/07/02 10:19:10;;;;;;;6.03;3.85;;;20.90;80.30;;;;;;4814457;29;20062;-86
2023/07/02 10:21:36;;;;;;;6.90;3.50;;;21.00;79.70;;;;;;4843572;29;20090;-86
2023/07/02 10:24:16;;;;;;;7.57;3.33;;;21.00;80.20;;;;;;4844749;29;20063;-87
2023/07/02 10:26:59;;;;;;;5.47;3.45;;;21.00;79.60;;;;;;4843347;29;20041;-87
2023/07/02 10:29:26;;;;;;;4.78;3.38;;;20.90;79.10;;;;;;4843800;29;20070;-86
2023/07/02 10:31:54;;;;;;;6.32;3.53;;;20.90;78.50;;;;;;4843438;29;20040;-86
2023/07/02 10:34:33;;;;;;;7.38;3.75;;;20.80;78.20;;;;;;4843158;29;20022;-86
2023/07/02 10:37:03;;;;;;;5.78;3.63;;;20.80;78.30;;;;;;4844308;29;20057;-86
2023/07/02 10:39:38;;;;;;;4.33;3.10;;;20.80;78.10;;;;;;4842880;29;20510;-84
2023/07/02 10:42:09;;;;;;;7.88;3.72;;;20.80;78.30;;;;;;4842055;29;20026;-85
2023/07/02 10:44:50;;;;;;;6.65;3.35;;;20.80;78.30;;;;;;4844435;29;20022;-86
2023/07/02 10:47:15;;;;;;;6.13;3.78;;;20.80;78.10;;;;;;4842871;29;20548;-86
2023/07/02 10:49:41;;;;;;;5.93;3.30;;;20.80;78.10;;;;;;4843877;29;20030;-86
2023/07/02 10:52:07;;;;;;;5.22;3.40;;;20.80;78.20;;;;;;4843015;29;20033;-85
2023/07/02 10:54:48;;;;;;;6.13;3.63;;;20.80;77.10;;;;;;4842609;29;20034;-85
2023/07/02 10:57:20;;;;;;;6.25;3.47;;;20.90;77.00;;;;;;4844022;29;20034;-85
2023/07/02 10:59:46;;;;;;;8.90;3.70;;;20.90;77.20;;;;;;4828315;29;20449;-86
2023/07/02 11:02:14;;;;;;;5.95;3.20;;;20.90;77.30;;;;;;4844039;29;20022;-84
2023/07/02 11:04:41;;;;;;;5.85;3.63;;;20.90;77.20;;;;;;4852350;29;20053;-87
2023/07/02 11:07:07;;;;;;;5.57;3.50;;;21.00;77.10;;;;;;4857767;29;20049;-86
2023/07/02 11:09:33;;;;;;;5.72;3.30;;;21.00;77.00;;;;;;4843352;29;20388;-86
2023/07/02 11:12:00;;;;;;;5.63;3.88;;;21.00;76.90;;;;;;4842508;29;20149;-87
2023/07/02 11:14:36;;;;;;;4.75;3.33;;;21.00;77.20;;;;;;4843829;29;20059;-86
2023/07/02 11:17:06;;;;;;;5.93;3.70;;;21.10;77.70;;;;;;4842296;29;20033;-86
2023/07/02 11:19:35;;;;;;;6.47;3.63;;;21.20;77.80;;;;;;4827423;29;20034;-88
2023/07/02 11:22:02;;;;;;;5.95;3.60;;;21.20;77.50;;;;;;4842411;29;20434;-86
2023/07/02 11:24:30;;;;;;;5.60;3.05;;;21.30;77.10;;;;;;4842771;29;20125;-85
2023/07/02 11:26:56;;;;;;;5.55;3.33;;;21.30;76.90;;;;;;4846753;29;20102;-85
2023/07/02 11:29:22;;;;;;;6.00;3.45;;;21.20;76.60;;;;;;4853487;29;20041;-86
2023/07/02 11:31:48;;;;;;;7.47;3.47;;;21.30;76.50;;;;;;4857106;29;20141;-86
2023/07/02 11:34:19;;;;;;;5.13;3.50;;;21.30;76.50;;;;;;4848055;29;20034;-86
2023/07/02 11:36:46;;;;;;;5.43;3.97;;;21.30;76.00;;;;;;4864973;29;20061;-86
2023/07/02 11:39:12;;;;;;;6.68;3.65;;;21.20;75.70;;;;;;4861330;29;20029;-86
2023/07/02 11:41:45;;;;;;;5.70;3.38;;;21.20;75.80;;;;;;4856398;29;20045;-85
2023/07/02 11:44:11;;;;;;;4.57;3.05;;;21.30;75.90;;;;;;4848941;29;20125;-86
2023/07/02 11:46:37;;;;;;;5.20;3.20;;;21.30;75.30;;;;;;4846113;29;20087;-84
2023/07/02 11:49:10;;;;;;;7.45;3.40;;;21.30;75.30;;;;;;4844770;29;20041;-86
2023/07/02 11:51:37;;;;;;;4.60;2.72;;;21.30;75.20;;;;;;4842329;29;20026;-85
2023/07/02 11:54:05;;;;;;;5.50;2.88;;;21.40;75.50;;;;;;4826663;29;20034;-86
2023/07/02 11:56:31;;;;;;;5.85;3.20;;;21.50;75.60;;;;;;4826783;29;20030;-85
2023/07/02 11:58:57;;;;;;;6.28;3.25;;;21.50;75.50;;;;;;4841641;29;20033;-86
2023/07/02 12:01:22;;;;;;;5.15;3.30;;;21.50;74.90;;;;;;4826736;29;20030;-86
2023/07/02 12:03:51;;;;;;;4.35;3.03;;;21.60;74.90;;;;;;4841454;29;20407;-86
2023/07/02 12:06:17;;;;;;;7.43;3.33;;;21.60;74.50;;;;;;4827045;29;20146;-87
2023/07/02 12:08:42;;;;;;;8.45;3.85;;;21.60;73.70;;;;;;4810945;29;20088;-89
2023/07/02 12:11:08;;;;;;;5.95;3.78;;;21.50;72.90;;;;;;4826700;29;20038;-87
2023/07/02 12:13:36;;;;;;;5.20;3.03;;;21.50;72.00;;;;;;4842691;29;20504;-87
2023/07/02 12:16:02;;;;;;;4.85;2.97;;;21.50;71.90;;;;;;4841151;29;20030;-85
2023/07/02 12:18:27;;;;;;;4.97;3.10;;;21.50;72.80;;;;;;4826670;29;20102;-87
2023/07/02 12:20:56;;;;;;;4.18;2.78;;;21.40;72.10;;;;;;4841352;29;20442;-87
2023/07/02 12:23:21;;;;;;;4.63;2.92;;;21.40;72.50;;;;;;4811797;29;20057;-85
2023/07/02 12:25:47;;;;;;;4.65;3.03;;;21.50;72.40;;;;;;4841255;29;20448;-86
2023/07/02 12:28:13;;;;;;;5.00;3.40;;;21.50;72.50;;;;;;4841497;29;20036;-86
2023/07/02 12:30:38;;;;;;;5.03;2.97;;;21.60;72.50;;;;;;4841362;29;20484;-85
2023/07/02 12:33:04;;;;;;;5.15;3.28;;;21.60;72.30;;;;;;4826259;29;20034;-86
2023/07/02 12:35:30;;;;;;;6.53;3.30;;;21.70;72.10;;;;;;4841733;29;20479;-86
2023/07/02 12:37:55;;;;;;;7.80;3.15;;;21.70;71.60;;;;;;4841065;29;20053;-87
2023/07/02 12:40:21;;;;;;;4.75;3.20;;;21.70;71.80;;;;;;4841657;29;20038;-86
2023/07/02 12:42:48;;;;;;;4.35;2.92;;;21.70;71.70;;;;;;4825957;29;20202;-87
2023/07/02 12:45:14;;;;;;;5.25;2.75;;;21.70;71.80;;;;;;4826565;29;20030;-86